Time,TemperatureF,DewpointF,PressureIn,WindDirection,WindDirectionDegrees,WindSpeedMPH,WindSpeedGustMPH,Humidity,HourlyPrecipIn,Conditions,Clouds,dailyrainin,SoftwareType,DateUTC
2013-05-11 00:00:00,52.7,41.3,24.31,North,0,0.0,-999.0,65,0.00,,,0.00,,2013-05-11 07:00:00,
2013-05-11 01:00:00,51.1,41.0,24.31,North,0,0.0,-999.0,68,0.00,,,0.00,,2013-05-11 08:00:00,
2013-05-11 02:00:00,50.4,41.0,24.30,North,0,0.0,-999.0,70,0.00,,,0.00,,2013-05-11 09:00:00,
2013-05-11 03:00:00,50.0,41.4,24.29,North,0,0.0,-999.0,72,0.00,,,0.00,,2013-05-11 10:00:00,
2013-05-11 04:00:00,49.9,41.5,24.29,North,0,0.0,-999.0,73,0.00,,,0.00,,2013-05-11 11:00:00,
2013-05-11 05:00:00,49.5,40.9,24.29,North,0,0.0,-999.0,72,0.00,,,0.00,,2013-05-11 12:00:00,
2013-05-11 06:00:00,49.3,39.2,24.29,North,0,0.0,-999.0,68,0.00,,,0.00,,2013-05-11 13:00:00,
2013-05-11 07:05:00,50.2,40.9,24.29,North,0,0.0,-999.0,70,0.00,,,0.00,,2013-05-11 14:05:00,
2013-05-11 08:05:00,54.5,43.8,0.00,North,0,0.0,-999.0,67,0.00,,,0.00,,2013-05-11 15:05:00,
2013-05-11 09:05:00,68.6,48.7,0.00,North,0,0.0,-999.0,49,0.00,,,0.00,,2013-05-11 16:05:00,
2013-05-11 10:05:00,76.0,43.2,0.00,North,0,0.0,-999.0,31,0.00,,,0.00,,2013-05-11 17:05:00,
2013-05-11 11:05:00,71.8,40.3,0.00,North,0,0.0,-999.0,32,0.00,,,0.00,,2013-05-11 18:05:00,
2013-05-11 12:05:00,74.2,36.7,0.00,North,0,0.0,-999.0,26,0.00,,,0.00,,2013-05-11 19:05:00,
2013-05-11 13:05:00,77.8,37.7,0.00,North,0,0.0,-999.0,24,0.00,,,0.00,,2013-05-11 20:05:00,
2013-05-11 14:05:00,74.9,48.2,0.00,North,0,0.0,-999.0,39,0.00,,,0.00,,2013-05-11 21:05:00,
2013-05-11 15:05:00,73.1,48.0,0.00,North,0,0.0,-999.0,41,0.00,,,0.00,,2013-05-11 22:05:00,
2013-05-11 16:05:00,72.5,46.9,0.00,North,0,0.0,-999.0,40,0.00,,,0.00,,2013-05-11 23:05:00,
2013-05-11 17:05:00,72.0,44.9,0.00,North,0,0.0,-999.0,38,0.00,,,0.00,,2013-05-12 00:05:00,
2013-05-11 18:00:00,69.8,45.6,24.31,North,0,0.0,-999.0,42,0.00,,,0.00,,2013-05-12 01:00:00,
2013-05-11 19:00:00,67.3,43.4,24.30,North,0,0.0,-999.0,42,0.00,,,0.00,,2013-05-12 02:00:00,
2013-05-11 20:00:00,62.1,44.2,24.32,North,0,0.0,-999.0,52,0.00,,,0.00,,2013-05-12 03:00:00,
2013-05-11 21:00:00,59.6,42.4,24.32,North,0,0.0,-999.0,53,0.00,,,0.00,,2013-05-12 04:00:00,
2013-05-11 22:00:00,58.7,41.6,24.32,North,0,0.0,-999.0,53,0.00,,,0.00,,2013-05-12 05:00:00,
2013-05-11 23:00:00,58.1,40.1,24.32,North,0,0.0,-999.0,51,0.00,,,0.00,,2013-05-12 06:00:00,